Adriatic Princess — IVPQ — position and weather

sailwx.info

Track history (hours):
 
Tides and Currents Weather Stations Pressure Air Temp Water Temp Dewpoint Dewpoint Depression Visibility Wind Speed Wind Dir Waves Ship Positions

Adriatic Princess

Last reported at 2017-Apr-03 17:21 UTC. Time now 2017-Apr-24 21:01 UTC.
Position N 40°49' E 014°07'.
Warning: this ship's position is 21 days out of date.

Length 32 m; draft 1.8 m.

Type: Ship (hazmat cat B). MMSI: 247165700.

Date/timePositionNaut miles runAvg speedWind from/ knotsBaromVisibWave heightAir tempDewpointWater temp
2017-Apr-03 17:21N 40°49' E 014°07'0 0.0
2017-Apr-03 17:00N 40°49' E 014°07'0 0.0
2017-Apr-03 16:30N 40°49' E 014°07'0 0.0
2017-Apr-01 15:35N 40°49' E 014°07'1 9.4
2017-Apr-01 15:30N 40°49' E 014°06'612.2
2017-Apr-01 15:00N 40°46' E 013°59'1 0.2
2017-Apr-01 11:49N 40°46' E 013°59'514.4
2017-Apr-01 11:30N 40°46' E 014°05'3 6.6
2017-Apr-01 11:00N 40°49' E 014°06'611.6
2017-Apr-01 10:30N 40°46' E 013°60'1 1.2
2017-Apr-01 09:39N 40°46' E 013°59'314.6
2017-Apr-01 09:28N 40°47' E 014°02'510.3
2017-Apr-01 09:00N 40°49' E 014°07'0 0.1
2017-Apr-01 08:28N 40°49' E 014°07'9 6.3
2017-Apr-01 07:06N 40°45' E 013°57'8 0.5
2017-Mar-31 15:33N 40°49' E 014°07'0 9.2
2017-Mar-31 15:30N 40°49' E 014°06'612.2
2017-Mar-31 15:00N 40°46' E 013°60'0 0.1
2017-Mar-31 11:39N 40°46' E 013°59'513.4
2017-Mar-31 11:15N 40°47' E 014°06'2 9.0
2017-Mar-31 10:59N 40°49' E 014°07'  
Track history (hours):
 
Tides and Currents Weather Stations Pressure Air Temp Water Temp Dewpoint Dewpoint Depression Visibility Wind Speed Wind Dir Waves Ship Positions

Adriatic Princess

Last reported at 2017-Apr-03 17:21 UTC. Time now 2017-Apr-24 21:01 UTC.
Position N 40°49' E 014°07'.
Warning: this ship's position is 21 days out of date.

Length 32 m; draft 1.8 m.

Type: Ship (hazmat cat B). MMSI: 247165700.

Date/timePositionNaut miles runAvg speedWind from/ knotsBaromVisibWave heightAir tempDewpointWater temp
2017-Apr-03 17:21N 40°49' E 014°07'0 0.0
2017-Apr-03 17:00N 40°49' E 014°07'0 0.0
2017-Apr-03 16:30N 40°49' E 014°07'0 0.0
2017-Apr-01 15:35N 40°49' E 014°07'1 9.4
2017-Apr-01 15:30N 40°49' E 014°06'612.2
2017-Apr-01 15:00N 40°46' E 013°59'1 0.2
2017-Apr-01 11:49N 40°46' E 013°59'514.4
2017-Apr-01 11:30N 40°46' E 014°05'3 6.6
2017-Apr-01 11:00N 40°49' E 014°06'611.6
2017-Apr-01 10:30N 40°46' E 013°60'1 1.2
2017-Apr-01 09:39N 40°46' E 013°59'314.6
2017-Apr-01 09:28N 40°47' E 014°02'510.3
2017-Apr-01 09:00N 40°49' E 014°07'0 0.1
2017-Apr-01 08:28N 40°49' E 014°07'9 6.3
2017-Apr-01 07:06N 40°45' E 013°57'8 0.5
2017-Mar-31 15:33N 40°49' E 014°07'0 9.2
2017-Mar-31 15:30N 40°49' E 014°06'612.2
2017-Mar-31 15:00N 40°46' E 013°60'0 0.1
2017-Mar-31 11:39N 40°46' E 013°59'513.4
2017-Mar-31 11:15N 40°47' E 014°06'2 9.0
2017-Mar-31 10:59N 40°49' E 014°07'  

Dump ship's entire track history